createdAt,value
2023-03-07T00:01:26.695Z,71.87
2023-03-07T00:04:00.742Z,71.14
2023-03-07T00:06:35.146Z,71.50
2023-03-07T00:09:08.506Z,71.83
2023-03-07T00:11:41.516Z,72.49
2023-03-07T00:14:14.498Z,72.41
2023-03-07T00:16:47.623Z,72.38
2023-03-07T00:19:20.804Z,72.53
2023-03-07T00:21:55.343Z,71.96
2023-03-07T00:24:28.395Z,72.90
2023-03-07T00:27:03.877Z,72.14
2023-03-07T00:29:36.988Z,71.72
2023-03-07T00:32:10.137Z,71.78
2023-03-07T00:34:43.229Z,72.71
2023-03-07T00:37:17.687Z,72.17
2023-03-07T00:39:50.787Z,72.38
2023-03-07T00:42:23.946Z,73.01
2023-03-07T00:44:57.058Z,72.35
2023-03-07T00:47:30.131Z,72.85
2023-03-07T00:50:04.290Z,72.85
2023-03-07T00:52:38.734Z,73.55
2023-03-07T00:55:12.110Z,73.48
2023-03-07T00:57:45.234Z,72.88
2023-03-07T01:00:18.795Z,72.55
2023-03-07T01:02:52.522Z,72.01
2023-03-07T01:05:25.711Z,72.92
2023-03-07T01:08:00.943Z,72.67
2023-03-07T01:10:34.517Z,72.62
2023-03-07T01:13:08.152Z,72.40
2023-03-07T01:15:41.309Z,72.96
2023-03-07T01:18:14.461Z,72.45
2023-03-07T01:20:47.665Z,72.11
2023-03-07T01:23:22.106Z,72.13
2023-03-07T01:25:55.224Z,72.03
2023-03-07T01:28:28.388Z,71.25
2023-03-07T01:31:02.646Z,71.13
2023-03-07T01:33:35.771Z,71.34
2023-03-07T01:36:18.964Z,71.21
2023-03-07T01:38:56.233Z,71.27
2023-03-07T01:41:32.198Z,70.85
2023-03-07T01:44:16.424Z,71.07
2023-03-07T01:46:53.154Z,71.37
2023-03-07T01:49:30.864Z,71.84
2023-03-07T01:52:08.648Z,71.95
2023-03-07T01:54:49.027Z,71.55
2023-03-07T01:57:25.825Z,71.61
2023-03-07T02:00:06.982Z,71.64
2023-03-07T02:02:42.528Z,71.18
2023-03-07T02:05:21.651Z,71.09
2023-03-07T02:07:57.245Z,70.85
2023-03-07T02:10:34.142Z,70.77
2023-03-07T02:13:07.337Z,71.11
2023-03-07T02:15:40.758Z,71.08
2023-03-07T02:18:17.786Z,69.25
2023-03-07T02:21:00.936Z,69.57
2023-03-07T02:23:45.435Z,69.33
2023-03-07T02:26:26.631Z,69.53
2023-03-07T02:29:02.680Z,69.04
2023-03-07T02:31:35.720Z,69.14
2023-03-07T02:34:21.095Z,69.70
2023-03-07T02:36:59.639Z,69.20
2023-03-07T02:39:33.121Z,69.00
2023-03-07T02:42:13.619Z,68.93
2023-03-07T02:44:48.911Z,68.73
2023-03-07T02:47:22.005Z,69.85
2023-03-07T02:49:55.670Z,69.16
2023-03-07T02:52:29.832Z,68.89
2023-03-07T02:55:03.357Z,68.83
2023-03-07T02:57:36.985Z,68.92
2023-03-07T03:00:14.093Z,69.64
2023-03-07T03:02:47.293Z,71.23
2023-03-07T03:05:20.350Z,71.95
2023-03-07T03:07:53.725Z,72.82
2023-03-07T03:10:26.755Z,72.99
2023-03-07T03:12:59.857Z,73.47
2023-03-07T03:15:34.258Z,73.29
2023-03-07T03:18:07.390Z,73.37
2023-03-07T03:20:40.946Z,73.34
2023-03-07T03:23:14.144Z,72.75
2023-03-07T03:25:47.303Z,72.55
2023-03-07T03:28:20.867Z,72.42
2023-03-07T03:31:04.904Z,72.59
2023-03-07T03:33:39.312Z,72.82
2023-03-07T03:36:15.837Z,73.93
2023-03-07T03:38:49.421Z,73.88
2023-03-07T03:41:22.522Z,73.67
2023-03-07T03:43:55.599Z,73.62
2023-03-07T03:46:30.060Z,73.22
2023-03-07T03:49:03.438Z,73.94
2023-03-07T03:51:36.484Z,73.66
2023-03-07T03:54:09.808Z,73.82
2023-03-07T03:56:42.882Z,73.77
2023-03-07T03:59:16.101Z,73.62
2023-03-07T04:01:50.734Z,73.12
2023-03-07T04:04:24.199Z,73.69
2023-03-07T04:06:57.268Z,71.00
2023-03-07T04:09:30.311Z,71.14
2023-03-07T04:12:03.587Z,69.98
2023-03-07T04:14:36.632Z,70.40
2023-03-07T04:17:11.032Z,71.33
2023-03-07T04:19:44.077Z,70.47
2023-03-07T04:22:17.082Z,69.88
2023-03-07T04:24:50.097Z,68.21
2023-03-07T04:27:23.138Z,68.25
2023-03-07T04:29:56.217Z,68.62
2023-03-07T04:32:30.694Z,67.75
2023-03-07T04:35:03.780Z,67.57
2023-03-07T04:37:36.798Z,67.17
2023-03-07T04:40:11.673Z,66.12
2023-03-07T04:42:44.712Z,66.02
2023-03-07T04:45:17.967Z,66.06
2023-03-07T04:47:52.343Z,66.47
2023-03-07T04:50:25.425Z,67.21
2023-03-07T04:52:58.599Z,66.97
2023-03-07T04:55:31.701Z,67.32
2023-03-07T04:58:04.751Z,67.79
2023-03-07T05:00:37.795Z,67.44
2023-03-07T05:03:14.195Z,67.89
2023-03-07T05:05:47.213Z,67.00
2023-03-07T05:08:20.495Z,65.13
2023-03-07T05:10:53.492Z,65.49
2023-03-07T05:13:26.806Z,66.04
2023-03-07T05:16:00.986Z,66.64
2023-03-07T05:18:35.356Z,65.68
2023-03-07T05:21:08.539Z,66.14
2023-03-07T05:23:41.718Z,66.70
2023-03-07T05:26:14.742Z,64.79
2023-03-07T05:28:48.201Z,65.72
2023-03-07T05:31:21.220Z,66.34
2023-03-07T05:33:55.928Z,67.33
2023-03-07T05:36:29.458Z,65.79
2023-03-07T05:39:03.548Z,64.83
2023-03-07T05:41:36.586Z,64.91
2023-03-07T05:44:09.869Z,63.00
2023-03-07T05:46:42.853Z,62.44
2023-03-07T05:49:17.206Z,62.24
2023-03-07T05:51:50.208Z,62.45
2023-03-07T05:54:23.264Z,62.15
2023-03-07T05:56:56.303Z,62.20
2023-03-07T05:59:29.320Z,62.54
2023-03-07T06:02:02.317Z,61.79
2023-03-07T06:04:36.695Z,61.50
2023-03-07T06:07:09.661Z,61.28
2023-03-07T06:09:42.662Z,61.14
2023-03-07T06:12:15.761Z,61.42
2023-03-07T06:14:48.765Z,61.50
2023-03-07T06:17:21.801Z,61.97
2023-03-07T06:19:56.281Z,60.86
2023-03-07T06:22:31.773Z,60.65
2023-03-07T06:25:05.293Z,61.18
2023-03-07T06:27:40.214Z,60.85
2023-03-07T06:30:14.629Z,60.84
2023-03-07T06:32:47.647Z,61.24
2023-03-07T06:35:22.346Z,60.38
2023-03-07T06:37:55.411Z,60.50
2023-03-07T06:40:28.421Z,60.49
2023-03-07T06:43:01.480Z,60.78
2023-03-07T06:45:34.994Z,61.03
2023-03-07T06:48:08.140Z,61.28
2023-03-07T06:50:42.495Z,61.61
2023-03-07T06:53:16.033Z,60.88
2023-03-07T06:55:50.901Z,61.55
2023-03-07T06:58:24.040Z,60.49
2023-03-07T07:00:57.085Z,60.31
2023-03-07T07:03:30.407Z,60.88
2023-03-07T07:06:04.949Z,60.14
2023-03-07T07:08:38.678Z,60.86
2023-03-07T07:11:12.474Z,60.86
2023-03-07T07:13:45.845Z,60.72
2023-03-07T07:16:19.720Z,61.11
2023-03-07T07:18:53.019Z,60.87
2023-03-07T07:21:27.366Z,60.55
2023-03-07T07:24:00.458Z,59.50
2023-03-07T07:26:33.466Z,59.12
2023-03-07T07:29:06.526Z,59.61
2023-03-07T07:31:39.641Z,58.67
2023-03-07T07:34:13.123Z,59.12
2023-03-07T07:36:47.453Z,58.76
2023-03-07T07:39:21.748Z,58.24
2023-03-07T07:41:54.889Z,58.21
2023-03-07T07:44:31.449Z,58.67
2023-03-07T07:47:04.685Z,58.60
2023-03-07T07:49:37.716Z,58.40
2023-03-07T07:52:12.059Z,57.87
2023-03-07T07:54:45.096Z,57.76
2023-03-07T07:57:18.121Z,57.43
2023-03-07T07:59:51.082Z,57.58
2023-03-07T08:02:24.436Z,57.63
2023-03-07T08:04:57.510Z,56.85
2023-03-07T08:07:31.864Z,56.43
2023-03-07T08:10:06.123Z,56.21
2023-03-07T08:12:39.127Z,56.08
2023-03-07T08:15:13.625Z,55.87
2023-03-07T08:17:46.778Z,56.86
2023-03-07T08:20:22.398Z,55.82
2023-03-07T08:22:56.846Z,56.40
2023-03-07T08:25:29.928Z,56.28
2023-03-07T08:28:05.060Z,55.96
2023-03-07T08:30:38.709Z,55.53
2023-03-07T08:33:11.735Z,55.77
2023-03-07T08:35:44.724Z,55.67
2023-03-07T08:38:19.161Z,55.23
2023-03-07T08:40:52.165Z,55.08
2023-03-07T08:43:25.226Z,55.50
2023-03-07T08:45:59.128Z,55.04
2023-03-07T08:48:32.448Z,55.58
2023-03-07T08:51:07.463Z,55.28
2023-03-07T08:53:43.049Z,54.44
2023-03-07T08:56:18.483Z,54.55
2023-03-07T08:58:54.501Z,54.64
2023-03-07T09:01:27.664Z,54.25
2023-03-07T09:04:00.711Z,53.55
2023-03-07T09:06:33.719Z,53.59
2023-03-07T09:09:08.092Z,52.96
2023-03-07T09:11:41.170Z,52.12
2023-03-07T09:14:14.157Z,52.08
2023-03-07T09:16:47.130Z,52.30
2023-03-07T09:19:20.157Z,52.24
2023-03-07T09:21:53.146Z,52.05
2023-03-07T09:24:27.620Z,51.72
2023-03-07T09:27:00.636Z,50.97
2023-03-07T09:29:33.706Z,51.37
2023-03-07T09:32:07.208Z,50.58
2023-03-07T09:34:40.610Z,50.36
2023-03-07T09:37:13.676Z,50.07
2023-03-07T09:39:50.258Z,50.61
2023-03-07T09:42:29.761Z,50.24
2023-03-07T09:45:21.841Z,49.53
2023-03-07T09:48:37.131Z,49.72
2023-03-07T09:51:18.387Z,49.40
2023-03-07T09:53:55.026Z,49.52
2023-03-07T09:56:34.210Z,48.82
2023-03-07T09:59:22.806Z,49.67
2023-03-07T10:02:06.298Z,49.35
2023-03-07T10:04:47.032Z,49.90
2023-03-07T10:07:25.817Z,50.11
2023-03-07T10:10:02.930Z,50.26
2023-03-07T10:12:54.495Z,50.67
2023-03-07T10:15:45.577Z,50.26
2023-03-07T10:18:46.839Z,50.11
2023-03-07T10:21:27.894Z,49.14
2023-03-07T10:24:37.434Z,49.26
2023-03-07T10:27:12.826Z,49.96
2023-03-07T10:29:50.771Z,49.70
2023-03-07T10:32:32.128Z,49.97
2023-03-07T10:35:19.126Z,48.29
2023-03-07T10:37:55.691Z,48.79
2023-03-07T10:40:35.703Z,49.28
2023-03-07T10:43:23.700Z,49.47
2023-03-07T10:46:22.344Z,50.30
2023-03-07T10:49:10.223Z,48.66
2023-03-07T10:51:54.946Z,48.78
2023-03-07T10:54:32.325Z,47.48
2023-03-07T10:57:10.097Z,48.04
2023-03-07T10:59:44.880Z,48.59
2023-03-07T11:02:35.975Z,48.74
2023-03-07T11:05:31.102Z,49.01
2023-03-07T11:08:27.878Z,48.57
2023-03-07T11:11:03.199Z,48.83
2023-03-07T11:13:36.228Z,48.99
2023-03-07T11:16:18.171Z,49.93
2023-03-07T11:18:52.601Z,49.50
2023-03-07T11:21:31.288Z,47.66
2023-03-07T11:24:07.544Z,47.91
2023-03-07T11:26:42.576Z,48.08
2023-03-07T11:29:16.100Z,48.40
2023-03-07T11:32:00.612Z,46.01
2023-03-07T11:34:42.400Z,47.88
2023-03-07T11:37:29.126Z,47.67
2023-03-07T11:40:23.304Z,47.23
2023-03-07T11:43:07.508Z,47.54
2023-03-07T11:45:51.123Z,47.38
2023-03-07T11:48:43.210Z,47.95
2023-03-07T11:51:35.726Z,46.51
2023-03-07T11:54:20.923Z,46.61
2023-03-07T11:57:04.994Z,45.93
2023-03-07T12:00:01.981Z,46.05
2023-03-07T12:03:08.894Z,46.00
2023-03-07T12:06:09.488Z,47.60
2023-03-07T12:08:57.070Z,47.70
2023-03-07T12:11:48.768Z,48.33
2023-03-07T12:14:33.622Z,48.54
2023-03-07T12:17:22.002Z,48.96
2023-03-07T12:20:31.848Z,48.37
2023-03-07T12:23:15.471Z,47.98
2023-03-07T12:25:54.984Z,48.82
2023-03-07T12:28:33.528Z,48.80
2023-03-07T12:31:12.118Z,47.97
2023-03-07T12:33:55.398Z,48.51
2023-03-07T12:36:35.671Z,49.02
2023-03-07T12:39:19.872Z,48.84
2023-03-07T12:42:06.002Z,48.02
2023-03-07T12:44:44.546Z,48.54
2023-03-07T12:47:26.446Z,49.17
2023-03-07T12:50:06.155Z,47.86
2023-03-07T12:52:44.867Z,48.30
2023-03-07T12:55:27.074Z,47.64
2023-03-07T12:58:08.850Z,47.68
2023-03-07T13:00:48.562Z,48.40
2023-03-07T13:03:35.547Z,48.05
2023-03-07T13:06:16.921Z,48.07
2023-03-07T13:08:53.089Z,47.18
2023-03-07T13:11:28.636Z,46.95
2023-03-07T13:14:03.992Z,46.66
2023-03-07T13:16:41.240Z,46.84
2023-03-07T13:19:53.980Z,46.53
2023-03-07T13:23:13.015Z,46.71
2023-03-07T13:25:57.214Z,45.96
2023-03-07T13:28:51.617Z,45.89
2023-03-07T13:31:44.202Z,45.89
2023-03-07T13:34:51.439Z,46.04
2023-03-07T13:37:54.398Z,46.05
2023-03-07T13:40:58.388Z,45.13
2023-03-07T13:43:59.669Z,45.32
2023-03-07T13:46:55.116Z,46.80
2023-03-07T13:49:49.213Z,45.75
2023-03-07T13:52:39.467Z,45.93
2023-03-07T13:55:32.920Z,45.48
2023-03-07T13:58:21.617Z,46.00
2023-03-07T14:01:00.045Z,44.90
2023-03-07T14:03:39.345Z,44.99
2023-03-07T14:06:19.136Z,45.91
2023-03-07T14:08:53.148Z,44.81
2023-03-07T14:11:34.679Z,45.10
2023-03-07T14:14:41.084Z,45.40
2023-03-07T14:17:44.568Z,45.87
2023-03-07T14:20:28.982Z,44.48
2023-03-07T14:23:21.765Z,44.91
2023-03-07T14:26:05.080Z,44.17
2023-03-07T14:28:38.205Z,44.31
2023-03-07T14:31:25.178Z,44.50
2023-03-07T14:33:59.011Z,44.27
2023-03-07T14:36:33.961Z,45.56
2023-03-07T14:39:13.192Z,46.23
2023-03-07T14:41:57.919Z,45.04
2023-03-07T14:45:12.171Z,45.54
2023-03-07T14:48:27.981Z,44.92
2023-03-07T14:51:13.881Z,44.75
2023-03-07T14:53:48.690Z,45.67
2023-03-07T14:56:25.319Z,46.38
2023-03-07T14:59:01.117Z,45.99
2023-03-07T15:01:37.870Z,46.17
2023-03-07T15:04:25.429Z,46.25
2023-03-07T15:07:01.256Z,46.37
2023-03-07T15:09:35.830Z,46.31
2023-03-07T15:12:15.691Z,46.63
2023-03-07T15:14:52.349Z,46.48
2023-03-07T15:17:29.099Z,46.28
2023-03-07T15:20:07.554Z,46.87
2023-03-07T15:22:43.824Z,46.98
2023-03-07T15:25:25.960Z,46.92
2023-03-07T15:28:01.699Z,46.79
2023-03-07T15:30:37.602Z,46.14
2023-03-07T15:33:17.921Z,46.20
2023-03-07T15:36:32.164Z,46.07
2023-03-07T15:39:28.785Z,46.81
2023-03-07T15:42:07.205Z,46.81
2023-03-07T15:44:40.257Z,46.38
2023-03-07T15:47:18.094Z,47.03
2023-03-07T15:49:54.246Z,46.89
2023-03-07T15:52:31.957Z,47.54
2023-03-07T15:55:08.543Z,46.96
2023-03-07T15:57:52.562Z,46.17
2023-03-07T16:00:33.450Z,45.57
2023-03-07T16:03:25.483Z,46.03
2023-03-07T16:06:00.951Z,46.33
2023-03-07T16:08:34.245Z,47.52
2023-03-07T16:11:08.852Z,47.49
2023-03-07T16:13:45.368Z,47.62
2023-03-07T16:16:23.569Z,48.24
2023-03-07T16:18:58.256Z,47.70
2023-03-07T16:21:31.252Z,47.49
2023-03-07T16:24:04.663Z,48.11
2023-03-07T16:26:37.660Z,48.07
2023-03-07T16:29:16.933Z,48.31
2023-03-07T16:31:50.334Z,48.77
2023-03-07T16:34:24.014Z,49.11
2023-03-07T16:36:57.350Z,49.06
2023-03-07T16:39:30.306Z,47.71
2023-03-07T16:42:04.151Z,48.42
2023-03-07T16:44:40.718Z,49.20
2023-03-07T16:47:17.093Z,48.80
2023-03-07T16:49:50.962Z,49.02
2023-03-07T16:52:25.686Z,50.05
2023-03-07T16:54:58.846Z,49.56
2023-03-07T16:57:32.042Z,50.44
2023-03-07T17:00:08.570Z,50.37
2023-03-07T17:02:41.664Z,49.72
2023-03-07T17:05:18.779Z,49.63
2023-03-07T17:07:51.945Z,50.02
2023-03-07T17:10:27.407Z,50.54
2023-03-07T17:13:02.416Z,50.76
2023-03-07T17:15:37.185Z,50.60
2023-03-07T17:18:11.935Z,50.23
2023-03-07T17:20:44.992Z,50.30
2023-03-07T17:23:21.917Z,49.67
2023-03-07T17:25:55.154Z,50.26
2023-03-07T17:28:28.224Z,50.67
2023-03-07T17:31:02.629Z,51.16
2023-03-07T17:33:35.797Z,51.27
2023-03-07T17:36:12.186Z,51.06
2023-03-07T17:38:45.358Z,50.73
2023-03-07T17:41:18.644Z,51.69
2023-03-07T17:43:51.638Z,51.92
2023-03-07T17:46:26.048Z,52.36
2023-03-07T17:48:59.075Z,52.81
2023-03-07T17:51:32.386Z,52.77
2023-03-07T17:54:08.293Z,52.38
2023-03-07T17:56:41.632Z,53.41
2023-03-07T17:59:14.649Z,53.30
2023-03-07T18:01:49.061Z,53.40
2023-03-07T18:04:22.122Z,53.13
2023-03-07T18:06:55.171Z,54.00
2023-03-07T18:09:28.538Z,53.71
2023-03-07T18:12:01.909Z,54.39
2023-03-07T18:14:34.925Z,54.25
2023-03-07T18:17:09.354Z,54.80
2023-03-07T18:19:42.346Z,54.67
2023-03-07T18:22:15.452Z,54.99
2023-03-07T18:24:48.486Z,54.80
2023-03-07T18:27:21.537Z,54.88
2023-03-07T18:29:54.545Z,54.77
2023-03-07T18:32:30.551Z,54.33
2023-03-07T18:35:03.847Z,54.69
2023-03-07T18:37:37.027Z,54.99
2023-03-07T18:40:12.714Z,54.79
2023-03-07T18:42:45.779Z,55.29
2023-03-07T18:45:18.940Z,56.01
2023-03-07T18:47:53.308Z,55.67
2023-03-07T18:50:26.483Z,56.37
2023-03-07T18:52:59.777Z,56.26
2023-03-07T18:55:34.547Z,56.07
2023-03-07T18:58:07.643Z,56.03
2023-03-07T19:00:40.711Z,54.93
2023-03-07T19:03:16.438Z,54.75
2023-03-07T19:05:51.135Z,54.42
2023-03-07T19:08:24.177Z,54.31
2023-03-07T19:10:57.360Z,53.78
2023-03-07T19:13:31.035Z,53.76
2023-03-07T19:16:06.519Z,53.48
2023-03-07T19:18:41.460Z,52.50
2023-03-07T19:21:19.008Z,52.71
2023-03-07T19:23:53.515Z,52.60
2023-03-07T19:26:26.980Z,52.25
2023-03-07T19:29:00.162Z,52.48
2023-03-07T19:31:34.970Z,51.94
2023-03-07T19:34:10.850Z,51.96
2023-03-07T19:36:44.110Z,52.18
2023-03-07T19:39:20.496Z,51.24
2023-03-07T19:41:53.584Z,52.25
2023-03-07T19:44:26.643Z,52.02
2023-03-07T19:46:59.644Z,52.06
2023-03-07T19:49:36.083Z,52.29
2023-03-07T19:52:09.287Z,51.78
2023-03-07T19:54:42.325Z,51.70
2023-03-07T19:57:16.124Z,51.88
2023-03-07T19:59:53.646Z,51.96
2023-03-07T20:02:29.381Z,51.76
2023-03-07T20:05:05.825Z,51.79
2023-03-07T20:07:38.912Z,52.18
2023-03-07T20:10:13.004Z,52.39
2023-03-07T20:12:46.051Z,52.28
2023-03-07T20:15:19.106Z,52.21
2023-03-07T20:17:52.164Z,52.34
2023-03-07T20:20:26.521Z,52.52
2023-03-07T20:23:00.387Z,52.49
2023-03-07T20:25:33.434Z,52.49
2023-03-07T20:28:06.708Z,52.95
2023-03-07T20:30:40.692Z,53.18
2023-03-07T20:33:13.858Z,53.35
2023-03-07T20:35:48.290Z,53.29
2023-03-07T20:38:21.415Z,53.44
2023-03-07T20:41:02.427Z,53.36
2023-03-07T20:43:36.170Z,53.24
2023-03-07T20:46:13.007Z,53.80
2023-03-07T20:48:47.315Z,53.33
2023-03-07T20:51:24.827Z,54.32
2023-03-07T20:53:59.804Z,54.09
2023-03-07T20:56:35.578Z,53.70
2023-03-07T20:59:11.231Z,54.14
2023-03-07T21:01:44.632Z,53.79
2023-03-07T21:04:20.544Z,53.73
2023-03-07T21:06:54.977Z,54.02
2023-03-07T21:09:28.338Z,53.80
2023-03-07T21:12:01.651Z,53.82
2023-03-07T21:14:34.997Z,53.79
2023-03-07T21:17:09.150Z,53.24
2023-03-07T21:19:42.183Z,53.49
2023-03-07T21:22:16.722Z,53.25
2023-03-07T21:24:49.755Z,53.79
2023-03-07T21:27:22.800Z,53.36
2023-03-07T21:29:55.824Z,53.74
2023-03-07T21:32:28.883Z,53.28
2023-03-07T21:35:04.165Z,52.80
2023-03-07T21:37:38.622Z,52.52
2023-03-07T21:40:13.668Z,51.43
2023-03-07T21:42:46.895Z,51.75
2023-03-07T21:45:20.294Z,51.29
2023-03-07T21:47:54.277Z,51.63
2023-03-07T21:50:27.629Z,51.48
2023-03-07T21:53:02.046Z,51.31
2023-03-07T21:55:35.060Z,51.93
2023-03-07T21:58:08.096Z,52.63
2023-03-07T22:00:41.113Z,52.66
2023-03-07T22:03:14.167Z,52.78
2023-03-07T22:05:47.345Z,52.97
2023-03-07T22:08:22.190Z,53.17
2023-03-07T22:11:00.183Z,53.06
2023-03-07T22:13:35.742Z,53.15
2023-03-07T22:16:12.881Z,53.05
2023-03-07T22:18:45.945Z,53.84
2023-03-07T22:21:21.059Z,53.74
2023-03-07T22:23:57.914Z,53.91
2023-03-07T22:26:33.183Z,53.56
2023-03-07T22:29:06.332Z,53.52
2023-03-07T22:31:39.413Z,53.94
2023-03-07T22:34:12.507Z,53.97
2023-03-07T22:36:45.585Z,53.58
2023-03-07T22:39:20.190Z,53.96
2023-03-07T22:41:53.280Z,53.77
2023-03-07T22:44:26.414Z,52.30
2023-03-07T22:46:59.767Z,53.18
2023-03-07T22:49:33.282Z,53.33
2023-03-07T22:52:06.807Z,52.96
2023-03-07T22:54:43.446Z,52.70
2023-03-07T22:57:16.577Z,52.39
2023-03-07T22:59:49.890Z,52.49
2023-03-07T23:02:22.961Z,51.44
2023-03-07T23:04:55.976Z,52.33
2023-03-07T23:07:29.027Z,51.77
2023-03-07T23:10:03.755Z,51.48
2023-03-07T23:12:36.855Z,51.56
2023-03-07T23:15:10.599Z,51.87
2023-03-07T23:17:43.634Z,51.97
2023-03-07T23:20:18.816Z,52.25
2023-03-07T23:22:51.915Z,52.10
2023-03-07T23:25:26.297Z,51.90
2023-03-07T23:27:59.357Z,51.87
2023-03-07T23:30:32.385Z,52.09
2023-03-07T23:33:05.778Z,52.26
2023-03-07T23:35:38.891Z,52.11
2023-03-07T23:38:13.820Z,52.18
2023-03-07T23:40:48.197Z,52.27
2023-03-07T23:43:21.241Z,52.13
2023-03-07T23:45:54.379Z,52.27
2023-03-07T23:48:27.615Z,52.22
2023-03-07T23:51:00.640Z,52.68
2023-03-07T23:53:33.742Z,52.56
2023-03-07T23:56:10.059Z,52.50
2023-03-07T23:58:43.866Z,52.75
